Time;durP1;ratioP1;P1;durP2;ratioP2;P2;SDS_P1;SDS_P2;PMS_P1;PMS_P2;Temp;Humidity;BMP_temperature;BMP_pressure;BME280_temperature;BME280_humidity;BME280_pressure;Samples;Min_cycle;Max_cycle;Signal;HPM_P1;HPM_P2
2023/09/13 00:01:44;;;;;;;11.97;3.97;;;18.70;99.90;;;;;;5017271;28;20421;-75
2023/09/13 00:04:10;;;;;;;11.87;4.30;;;18.50;99.90;;;;;;5034266;28;20535;-76
2023/09/13 00:06:35;;;;;;;12.73;4.53;;;18.50;99.90;;;;;;5070359;28;20771;-76
2023/09/13 00:09:01;;;;;;;13.32;4.00;;;18.50;99.90;;;;;;5017895;28;20409;-76
2023/09/13 00:11:27;;;;;;;11.40;4.00;;;18.50;99.90;;;;;;5049711;28;20517;-76
2023/09/13 00:13:52;;;;;;;9.10;3.53;;;18.50;99.90;;;;;;5037504;28;20437;-76
2023/09/13 00:16:18;;;;;;;10.65;3.50;;;18.40;99.90;;;;;;5066493;28;20951;-76
2023/09/13 00:18:44;;;;;;;9.70;4.00;;;18.70;99.90;;;;;;5031496;28;20437;-76
2023/09/13 00:21:13;;;;;;;10.80;3.57;;;18.40;99.90;;;;;;5070126;28;20489;-76
2023/09/13 00:23:39;;;;;;;9.25;3.45;;;18.50;99.90;;;;;;5044855;28;20419;-76
2023/09/13 00:26:05;;;;;;;10.27;3.95;;;18.30;99.90;;;;;;5050093;28;20900;-76
2023/09/13 00:28:30;;;;;;;9.17;3.43;;;18.50;99.90;;;;;;5065802;28;20425;-76
2023/09/13 00:30:59;;;;;;;12.23;4.13;;;18.40;99.90;;;;;;5031980;28;20433;-75
2023/09/13 00:33:25;;;;;;;11.63;3.50;;;18.40;99.90;;;;;;5033578;28;20443;-75
2023/09/13 00:35:57;;;;;;;15.18;4.07;;;18.60;99.90;;;;;;5032732;28;20425;-75
2023/09/13 00:38:23;;;;;;;12.48;3.70;;;18.20;99.90;;;;;;5042293;28;20970;-75
2023/09/13 00:40:48;;;;;;;10.05;3.55;;;18.30;99.90;;;;;;5040217;28;20442;-76
2023/09/13 00:43:14;;;;;;;11.23;3.50;;;18.10;99.90;;;;;;5033684;28;20511;-76
2023/09/13 00:45:40;;;;;;;10.02;3.40;;;18.40;99.90;;;;;;5030360;28;20487;-76
2023/09/13 00:48:07;;;;;;;9.45;3.30;;;18.10;99.90;;;;;;5016391;28;20418;-76
2023/09/13 00:50:35;;;;;;;10.38;3.63;;;18.10;99.90;;;;;;5050421;28;20421;-76
2023/09/13 00:53:02;;;;;;;9.95;3.00;;;18.00;99.90;;;;;;5032367;28;20487;-78
2023/09/13 00:55:28;;;;;;;13.10;3.30;;;18.40;99.90;;;;;;5087009;28;20417;-79
2023/09/13 00:57:54;;;;;;;6.63;2.75;;;17.90;99.90;;;;;;5073304;28;20494;-78
2023/09/13 01:00:21;;;;;;;8.98;2.83;;;17.90;99.90;;;;;;5034894;28;20429;-78
2023/09/13 01:02:48;;;;;;;8.70;2.50;;;17.80;99.90;;;;;;5021046;28;20498;-78
2023/09/13 01:05:15;;;;;;;8.10;2.88;;;17.90;99.90;;;;;;5040316;28;20419;-79
2023/09/13 01:07:42;;;;;;;10.27;2.67;;;17.60;99.90;;;;;;5026832;28;20875;-78
2023/09/13 01:10:11;;;;;;;8.05;2.90;;;17.60;99.90;;;;;;5018338;28;20473;-78
2023/09/13 01:12:37;;;;;;;8.73;3.10;;;17.60;99.90;;;;;;5017611;28;20500;-78
2023/09/13 01:15:07;;;;;;;11.05;3.15;;;17.60;99.90;;;;;;5049305;28;20443;-79
2023/09/13 01:17:42;;;;;;;10.27;2.63;;;17.90;99.90;;;;;;5032437;28;20420;-79
2023/09/13 01:20:21;;;;;;;10.93;3.17;;;17.50;99.90;;;;;;5030914;28;20570;-79
2023/09/13 01:23:25;;;;;;;11.60;3.25;;;17.40;99.90;;;;;;5063553;28;20421;-79
2023/09/13 01:26:03;;;;;;;8.80;2.80;;;17.50;99.90;;;;;;5039145;28;20414;-78
2023/09/13 01:28:40;;;;;;;7.25;2.40;;;17.50;99.90;;;;;;5075719;28;20420;-78
2023/09/13 01:31:09;;;;;;;10.73;2.83;;;17.50;99.90;;;;;;5021231;28;20460;-78
2023/09/13 01:33:35;;;;;;;8.50;2.88;;;17.50;99.90;;;;;;5049181;28;20417;-78
2023/09/13 01:36:01;;;;;;;7.10;2.30;;;17.30;99.90;;;;;;5035775;28;20421;-78
2023/09/13 01:38:28;;;;;;;7.77;3.20;;;17.60;99.90;;;;;;5051643;28;20493;-78
2023/09/13 01:41:04;;;;;;;7.70;2.83;;;17.40;99.90;;;;;;5049014;28;20425;-79
2023/09/13 01:43:31;;;;;;;7.40;2.50;;;17.60;99.90;;;;;;5041290;28;20412;-79
2023/09/13 01:45:57;;;;;;;10.45;2.80;;;17.20;99.90;;;;;;5040670;28;20432;-78
2023/09/13 01:48:24;;;;;;;7.88;2.40;;;17.40;99.90;;;;;;5048071;28;20496;-79
2023/09/13 01:50:52;;;;;;;8.75;2.55;;;17.30;99.90;;;;;;5043705;28;20419;-78
2023/09/13 01:53:18;;;;;;;8.07;2.92;;;17.00;99.90;;;;;;5039133;28;20421;-79
2023/09/13 01:55:44;;;;;;;11.10;2.55;;;17.10;99.90;;;;;;5018324;28;20428;-79
2023/09/13 01:58:09;;;;;;;10.02;3.17;;;17.00;99.90;;;;;;5068836;28;20928;-79
2023/09/13 02:00:35;;;;;;;8.47;2.50;;;17.20;99.90;;;;;;5039062;28;20421;-79
2023/09/13 02:03:01;;;;;;;5.97;2.60;;;17.10;99.90;;;;;;5004032;28;20500;-78
2023/09/13 02:05:26;;;;;;;9.27;2.67;;;17.10;99.90;;;;;;5051977;28;20417;-79
2023/09/13 02:07:52;;;;;;;9.23;2.80;;;17.20;99.90;;;;;;5001000;28;20992;-78
2023/09/13 02:10:18;;;;;;;9.95;2.40;;;17.20;99.90;;;;;;5050313;28;20421;-78
2023/09/13 02:12:43;;;;;;;11.73;3.50;;;17.20;99.90;;;;;;5069011;28;20434;-78
2023/09/13 02:15:09;;;;;;;8.03;2.40;;;17.10;99.90;;;;;;5018481;28;20503;-78
2023/09/13 02:17:35;;;;;;;7.47;2.70;;;17.30;99.90;;;;;;5037064;28;20756;-78
2023/09/13 02:20:01;;;;;;;10.55;2.50;;;17.30;99.90;;;;;;5067895;28;20500;-78
2023/09/13 02:22:26;;;;;;;10.32;2.50;;;17.50;99.90;;;;;;5053962;28;20426;-78
2023/09/13 02:24:52;;;;;;;8.17;2.60;;;17.10;99.90;;;;;;5037616;28;20463;-79
2023/09/13 02:27:18;;;;;;;8.20;2.37;;;17.20;99.90;;;;;;5067690;28;20440;-79
2023/09/13 02:29:43;;;;;;;8.23;2.60;;;17.10;99.90;;;;;;5035582;28;20421;-78
2023/09/13 02:32:09;;;;;;;12.57;2.63;;;17.30;99.90;;;;;;5018795;28;20425;-78
2023/09/13 02:34:35;;;;;;;12.47;2.97;;;17.20;99.90;;;;;;5036749;28;20412;-79
2023/09/13 02:37:01;;;;;;;10.20;2.67;;;17.10;99.90;;;;;;5050190;28;20758;-78
2023/09/13 02:39:37;;;;;;;9.63;2.77;;;17.10;99.90;;;;;;5017306;28;20421;-78
2023/09/13 02:42:04;;;;;;;9.35;2.58;;;17.10;99.90;;;;;;5034579;28;20932;-78
2023/09/13 02:44:31;;;;;;;6.28;2.30;;;17.10;99.90;;;;;;5001932;28;20547;-78
2023/09/13 02:46:57;;;;;;;9.40;2.67;;;16.90;99.90;;;;;;5035154;28;20417;-78
2023/09/13 02:49:24;;;;;;;6.25;2.17;;;17.10;99.90;;;;;;5035650;28;20496;-78
2023/09/13 02:51:54;;;;;;;9.15;2.60;;;16.90;99.90;;;;;;5067714;28;20417;-78
2023/09/13 02:54:20;;;;;;;8.73;2.20;;;17.10;99.90;;;;;;5049785;28;20421;-78
2023/09/13 02:56:49;;;;;;;10.68;2.88;;;17.20;99.90;;;;;;5019511;28;20431;-78
2023/09/13 02:59:15;;;;;;;10.53;2.40;;;17.30;99.90;;;;;;5034688;28;20464;-79
2023/09/13 03:01:44;;;;;;;7.47;2.70;;;16.30;99.90;;;;;;5019187;28;20439;-78
2023/09/13 03:04:11;;;;;;;9.25;2.50;;;17.00;99.90;;;;;;5034013;28;20430;-76
2023/09/13 03:06:39;;;;;;;7.30;2.77;;;17.00;99.90;;;;;;5033728;28;20425;-75
2023/09/13 03:09:05;;;;;;;8.55;2.55;;;16.80;99.90;;;;;;5035083;28;20478;-75
2023/09/13 03:11:37;;;;;;;12.18;2.70;;;17.10;99.90;;;;;;5036857;28;20479;-77
2023/09/13 03:14:03;;;;;;;12.27;2.83;;;17.10;99.90;;;;;;5028329;28;20903;-76
2023/09/13 03:16:29;;;;;;;8.18;2.33;;;17.00;99.90;;;;;;5037033;28;20432;-75
2023/09/13 03:18:55;;;;;;;6.28;2.50;;;17.10;99.90;;;;;;5050645;28;20433;-75
2023/09/13 03:21:21;;;;;;;8.50;2.80;;;17.20;99.90;;;;;;5035654;28;20814;-75
2023/09/13 03:23:51;;;;;;;8.73;2.50;;;17.00;99.90;;;;;;5065764;28;20421;-75
2023/09/13 03:26:17;;;;;;;9.40;2.45;;;16.90;99.90;;;;;;5069216;28;20418;-75
2023/09/13 03:28:48;;;;;;;8.93;2.55;;;17.00;99.90;;;;;;5045140;28;20427;-76
2023/09/13 03:31:16;;;;;;;9.02;3.00;;;17.10;99.90;;;;;;5037284;28;20425;-75
2023/09/13 03:33:43;;;;;;;9.15;2.58;;;16.80;99.90;;;;;;5031691;28;20446;-75
2023/09/13 03:36:10;;;;;;;8.65;2.63;;;17.00;99.90;;;;;;5062182;28;20429;-75
2023/09/13 03:38:38;;;;;;;9.07;2.72;;;16.90;99.90;;;;;;5035295;28;20508;-75
2023/09/13 03:41:08;;;;;;;8.60;2.33;;;16.90;99.90;;;;;;5031572;28;20500;-75
2023/09/13 03:43:33;;;;;;;11.00;2.53;;;16.90;99.90;;;;;;5034290;28;20421;-76
2023/09/13 03:46:00;;;;;;;8.50;2.90;;;16.80;99.90;;;;;;5049215;28;20439;-76
2023/09/13 03:48:25;;;;;;;8.03;2.70;;;17.10;99.90;;;;;;5051668;28;20447;-75
2023/09/13 03:50:51;;;;;;;10.67;3.00;;;16.90;99.90;;;;;;5031797;28;20815;-75
2023/09/13 03:53:17;;;;;;;9.90;2.78;;;17.10;99.90;;;;;;5033093;28;20428;-76
2023/09/13 03:55:43;;;;;;;10.18;3.20;;;16.80;99.90;;;;;;5031625;28;20770;-76
2023/09/13 03:58:09;;;;;;;9.55;2.90;;;17.10;99.90;;;;;;5025811;28;20427;-75
2023/09/13 04:00:35;;;;;;;10.52;2.92;;;17.00;99.90;;;;;;5032245;28;20433;-76
2023/09/13 04:03:02;;;;;;;12.40;3.38;;;16.90;99.90;;;;;;5051784;28;20809;-76
2023/09/13 04:05:27;;;;;;;13.68;3.10;;;16.80;99.90;;;;;;5022056;28;20461;-75
2023/09/13 04:07:53;;;;;;;13.45;3.55;;;16.80;99.90;;;;;;5038109;28;20956;-75
2023/09/13 04:10:19;;;;;;;11.77;3.53;;;16.50;99.90;;;;;;5068031;28;20819;-75
2023/09/13 04:12:44;;;;;;;10.98;3.45;;;17.00;99.90;;;;;;5033076;28;20421;-75
2023/09/13 04:15:10;;;;;;;13.00;3.17;;;16.70;99.90;;;;;;5035705;28;20427;-75
2023/09/13 04:17:36;;;;;;;12.40;3.50;;;16.40;99.90;;;;;;5006166;28;20457;-75
2023/09/13 04:20:02;;;;;;;7.90;2.67;;;16.20;99.90;;;;;;5033579;28;20433;-75
2023/09/13 04:22:28;;;;;;;9.73;3.10;;;16.30;99.90;;;;;;5017673;28;20409;-75
2023/09/13 04:24:54;;;;;;;7.93;2.40;;;16.10;99.90;;;;;;5034385;28;20767;-76
2023/09/13 04:27:23;;;;;;;9.30;2.87;;;16.20;99.90;;;;;;5066634;28;20424;-75
2023/09/13 04:29:49;;;;;;;9.57;2.85;;;15.80;99.90;;;;;;5041700;28;21137;-75
2023/09/13 04:32:15;;;;;;;10.80;2.78;;;15.90;99.90;;;;;;5034277;28;20425;-75
2023/09/13 04:34:41;;;;;;;12.40;3.08;;;15.80;99.90;;;;;;5049376;28;20478;-76
2023/09/13 04:37:07;;;;;;;11.63;2.60;;;15.70;99.90;;;;;;5065619;28;20421;-76
2023/09/13 04:39:33;;;;;;;10.82;2.90;;;15.50;99.90;;;;;;5034164;28;20974;-76
2023/09/13 04:41:59;;;;;;;8.00;2.72;;;15.60;99.90;;;;;;5033575;28;20449;-76
2023/09/13 04:44:26;;;;;;;10.52;3.08;;;15.60;99.90;;;;;;5018235;28;20402;-76
2023/09/13 04:46:52;;;;;;;12.10;3.05;;;15.40;99.90;;;;;;5032294;28;20422;-76
2023/09/13 04:49:18;;;;;;;11.35;3.20;;;15.40;99.90;;;;;;5017105;28;20908;-76
2023/09/13 04:52:03;;;;;;;10.13;3.00;;;15.60;99.90;;;;;;5032147;28;20417;-75
2023/09/13 04:54:29;;;;;;;12.10;3.27;;;15.50;99.90;;;;;;5018826;28;20521;-76
2023/09/13 04:56:54;;;;;;;12.68;3.67;;;15.60;99.90;;;;;;5053061;28;20428;-72
2023/09/13 04:59:25;;;;;;;12.98;3.75;;;15.40;99.90;;;;;;5065019;28;20490;-72
2023/09/13 05:01:51;;;;;;;9.43;3.33;;;;;;;;;;5045013;28;20900;-72
2023/09/13 05:04:17;;;;;;;10.15;2.88;;;15.40;99.90;;;;;;5016357;28;20421;-72
2023/09/13 05:06:43;;;;;;;11.63;2.87;;;15.10;99.90;;;;;;5067619;28;20479;-73
2023/09/13 05:09:08;;;;;;;10.17;2.87;;;15.10;99.90;;;;;;5032174;28;20928;-71
2023/09/13 05:11:34;;;;;;;12.40;3.20;;;15.20;99.90;;;;;;5070307;28;20425;-71
2023/09/13 05:14:13;;;;;;;10.18;2.78;;;14.90;99.90;;;;;;5020166;28;20427;-71
2023/09/13 05:16:39;;;;;;;11.85;2.70;;;15.10;99.90;;;;;;5044573;28;20915;-71
2023/09/13 05:19:05;;;;;;;12.47;2.93;;;;;;;;;;5031167;28;20425;-73
2023/09/13 05:21:31;;;;;;;8.55;2.72;;;15.00;99.90;;;;;;5030001;28;20421;-72
2023/09/13 05:23:57;;;;;;;9.93;3.33;;;15.00;99.90;;;;;;5036414;28;20427;-72
2023/09/13 05:26:23;;;;;;;10.43;3.43;;;15.10;99.90;;;;;;5045355;28;20439;-72
2023/09/13 05:28:48;;;;;;;10.37;3.20;;;14.80;99.90;;;;;;5016004;28;20437;-72
2023/09/13 05:31:14;;;;;;;9.90;3.60;;;14.90;99.90;;;;;;5049179;28;20558;-72
2023/09/13 05:33:40;;;;;;;10.52;3.58;;;14.80;99.90;;;;;;5046742;28;20775;-72
2023/09/13 05:36:10;;;;;;;8.45;3.30;;;14.90;99.90;;;;;;5022340;28;20419;-71
2023/09/13 05:38:36;;;;;;;8.25;3.28;;;14.80;99.90;;;;;;5040022;28;20507;-72
2023/09/13 05:41:09;;;;;;;7.90;3.10;;;14.80;99.90;;;;;;5043207;28;20508;-72
2023/09/13 05:43:39;;;;;;;8.90;3.17;;;14.90;99.90;;;;;;5033068;28;20427;-73
2023/09/13 05:46:05;;;;;;;9.27;3.17;;;;;;;;;;5038462;28;20455;-72
2023/09/13 05:48:32;;;;;;;9.15;3.13;;;14.80;99.90;;;;;;5032239;28;20780;-72
2023/09/13 05:50:57;;;;;;;11.07;3.85;;;14.60;99.90;;;;;;5012856;28;20583;-72
2023/09/13 05:53:23;;;;;;;11.52;3.65;;;14.60;99.90;;;;;;5036711;28;20613;-72
2023/09/13 05:55:49;;;;;;;10.67;3.53;;;14.80;99.90;;;;;;5030551;28;20432;-72
2023/09/13 05:58:15;;;;;;;13.37;4.57;;;14.50;99.90;;;;;;5015587;28;20435;-72
2023/09/13 06:00:47;;;;;;;15.18;4.03;;;;;;;;;;5028197;28;20424;-72
2023/09/13 06:03:13;;;;;;;10.60;3.60;;;;;;;;;;5068342;28;20948;-73
2023/09/13 06:05:39;;;;;;;12.80;3.75;;;;;;;;;;5063485;28;20449;-73
2023/09/13 06:08:05;;;;;;;12.25;4.00;;;14.50;99.90;;;;;;5032810;28;20421;-73
2023/09/13 06:10:31;;;;;;;12.23;4.20;;;14.60;99.90;;;;;;5020818;28;20496;-73
2023/09/13 06:12:57;;;;;;;15.10;4.00;;;14.50;99.90;;;;;;5047239;28;20426;-73
2023/09/13 06:15:22;;;;;;;16.23;4.17;;;14.80;99.90;;;;;;5042513;28;20428;-72
2023/09/13 06:17:48;;;;;;;11.98;4.00;;;14.40;99.90;;;;;;5033011;28;20439;-73
2023/09/13 06:20:15;;;;;;;15.05;4.10;;;;;;;;;;5029378;28;20440;-73
2023/09/13 06:22:41;;;;;;;15.65;4.28;;;14.70;99.90;;;;;;5044821;28;20411;-73
2023/09/13 06:25:07;;;;;;;14.07;4.47;;;14.50;99.90;;;;;;5064157;28;20768;-74
2023/09/13 06:27:33;;;;;;;15.63;4.25;;;;;;;;;;5016489;28;20421;-74
2023/09/13 06:29:58;;;;;;;15.82;4.57;;;14.40;99.90;;;;;;5049616;28;20432;-74
2023/09/13 06:32:25;;;;;;;13.40;4.10;;;14.80;99.90;;;;;;5037777;28;20419;-75
2023/09/13 06:34:56;;;;;;;15.98;4.90;;;14.50;99.90;;;;;;5040940;28;20912;-73
2023/09/13 06:37:22;;;;;;;16.90;4.28;;;14.40;99.90;;;;;;5057635;28;20417;-74
2023/09/13 06:39:47;;;;;;;15.88;4.22;;;14.40;99.90;;;;;;5032913;28;20959;-74
2023/09/13 06:42:14;;;;;;;14.98;4.40;;;14.50;99.90;;;;;;5035434;28;20425;-74
2023/09/13 06:44:40;;;;;;;14.20;4.00;;;14.50;99.90;;;;;;5034316;28;20471;-73
2023/09/13 06:47:06;;;;;;;13.45;4.15;;;14.30;99.90;;;;;;5030152;28;20521;-73
2023/09/13 06:49:32;;;;;;;14.70;4.30;;;14.50;99.90;;;;;;5038319;28;20425;-73
2023/09/13 06:51:57;;;;;;;15.47;4.27;;;14.50;99.90;;;;;;5033214;28;20451;-73
2023/09/13 06:54:24;;;;;;;13.03;3.83;;;;;;;;;;5030700;28;21424;-72
2023/09/13 06:56:49;;;;;;;16.10;4.60;;;14.70;99.90;;;;;;5048862;28;20816;-72
2023/09/13 06:59:15;;;;;;;16.00;4.47;;;14.70;99.90;;;;;;5036594;28;20425;-73
2023/09/13 07:01:41;;;;;;;12.83;4.17;;;;;;;;;;5032967;28;20423;-73
2023/09/13 07:04:07;;;;;;;15.83;4.40;;;14.80;99.90;;;;;;5033883;28;20522;-72
2023/09/13 07:06:33;;;;;;;17.75;4.43;;;14.80;99.90;;;;;;5043631;28;20432;-72
2023/09/13 07:08:59;;;;;;;14.27;4.35;;;14.90;99.90;;;;;;5031242;28;20428;-72
2023/09/13 07:11:25;;;;;;;10.70;3.90;;;14.90;99.90;;;;;;5033383;28;20425;-72
2023/09/13 07:13:51;;;;;;;12.77;3.50;;;15.00;99.90;;;;;;5034301;28;20459;-73
2023/09/13 07:16:17;;;;;;;13.40;3.73;;;15.20;99.90;;;;;;5032314;28;20452;-72
2023/09/13 07:18:43;;;;;;;16.37;3.77;;;15.20;99.90;;;;;;5033112;28;20432;-73
2023/09/13 07:21:08;;;;;;;10.60;3.25;;;14.90;99.90;;;;;;5031296;28;20490;-72
2023/09/13 07:23:34;;;;;;;13.38;3.63;;;15.20;99.90;;;;;;5031570;28;20425;-72
2023/09/13 07:26:00;;;;;;;10.13;2.95;;;15.10;99.90;;;;;;5015474;28;20444;-72
2023/09/13 07:28:26;;;;;;;11.23;2.73;;;15.20;99.90;;;;;;5033512;28;20425;-73
2023/09/13 07:30:52;;;;;;;12.18;2.95;;;15.20;99.90;;;;;;5026787;28;20480;-73
2023/09/13 07:33:18;;;;;;;10.13;2.65;;;15.00;99.90;;;;;;5002556;28;20498;-73
2023/09/13 07:35:44;;;;;;;8.52;2.40;;;15.30;99.90;;;;;;5030885;28;20432;-73
2023/09/13 07:38:10;;;;;;;13.13;3.40;;;15.30;99.90;;;;;;5032555;28;20417;-73
2023/09/13 07:40:38;;;;;;;13.90;3.17;;;15.10;99.90;;;;;;5031167;28;20946;-73
2023/09/13 07:43:06;;;;;;;8.77;2.67;;;15.30;99.90;;;;;;5020523;28;20760;-73
2023/09/13 07:45:33;;;;;;;9.02;2.63;;;15.20;99.90;;;;;;5065756;28;20433;-73
2023/09/13 07:48:00;;;;;;;11.18;3.03;;;14.90;99.90;;;;;;5007958;28;20423;-73
2023/09/13 07:50:52;;;;;;;10.20;2.90;;;15.10;99.90;;;;;;5031841;28;20429;-73
2023/09/13 07:53:17;;;;;;;7.82;2.63;;;15.10;99.90;;;;;;5012356;28;20438;-73
2023/09/13 07:55:43;;;;;;;8.63;2.65;;;15.20;99.90;;;;;;5036008;28;20805;-73
2023/09/13 07:58:09;;;;;;;8.50;2.57;;;15.10;99.90;;;;;;5038780;28;20567;-73
2023/09/13 08:00:35;;;;;;;9.33;2.80;;;15.10;99.90;;;;;;5070455;28;20886;-73
2023/09/13 08:03:02;;;;;;;9.23;2.92;;;15.00;99.90;;;;;;5034460;28;20423;-74
2023/09/13 08:05:28;;;;;;;9.63;2.88;;;15.20;99.90;;;;;;5024464;28;20433;-73
2023/09/13 08:07:54;;;;;;;11.90;2.55;;;15.30;99.90;;;;;;5032671;28;20409;-73
2023/09/13 08:10:24;;;;;;;7.43;2.60;;;15.20;99.90;;;;;;5033382;28;20421;-73
2023/09/13 08:12:50;;;;;;;12.93;3.08;;;15.40;99.90;;;;;;5062110;28;20950;-73
2023/09/13 08:15:16;;;;;;;10.05;2.97;;;15.50;99.90;;;;;;5058476;28;20414;-74
2023/09/13 08:17:41;;;;;;;12.60;2.83;;;15.50;99.90;;;;;;5044711;28;20474;-75
2023/09/13 08:20:08;;;;;;;10.82;3.00;;;;;;;;;;4996545;28;20824;-74
2023/09/13 08:22:37;;;;;;;7.03;2.58;;;15.70;99.90;;;;;;5064352;28;20420;-74
2023/09/13 08:25:04;;;;;;;11.15;2.85;;;15.80;99.90;;;;;;5033007;28;20912;-74
2023/09/13 08:27:30;;;;;;;9.90;2.90;;;15.90;99.90;;;;;;5031172;28;20417;-75
2023/09/13 08:29:57;;;;;;;10.40;2.73;;;16.00;99.90;;;;;;5033168;28;20420;-74
2023/09/13 08:32:23;;;;;;;10.57;2.70;;;16.30;99.90;;;;;;5014221;28;20447;-74
2023/09/13 08:34:49;;;;;;;7.30;2.40;;;16.50;99.90;;;;;;5062983;28;20429;-74
2023/09/13 08:37:15;;;;;;;8.13;2.80;;;16.60;99.90;;;;;;5032841;28;20432;-75
2023/09/13 08:39:41;;;;;;;9.25;2.88;;;16.40;99.90;;;;;;5030992;28;20442;-74
2023/09/13 08:42:07;;;;;;;12.10;2.75;;;16.60;99.90;;;;;;5025529;28;20803;-74
2023/09/13 08:44:35;;;;;;;11.10;2.90;;;16.50;99.90;;;;;;5041963;28;20752;-74
2023/09/13 08:47:02;;;;;;;10.65;2.83;;;16.60;99.90;;;;;;5030959;28;20844;-74
2023/09/13 08:49:29;;;;;;;9.60;2.80;;;16.70;99.90;;;;;;5032049;28;20421;-74
2023/09/13 08:51:56;;;;;;;9.85;2.63;;;16.70;99.90;;;;;;5049680;28;20930;-74
2023/09/13 08:54:22;;;;;;;9.40;3.20;;;16.50;99.90;;;;;;5064994;28;20742;-75
2023/09/13 08:56:48;;;;;;;10.38;2.83;;;16.40;99.90;;;;;;5031865;28;20447;-75
2023/09/13 08:59:15;;;;;;;9.50;2.80;;;16.40;99.90;;;;;;5031870;28;20980;-74
2023/09/13 09:01:50;;;;;;;10.27;2.72;;;16.40;99.90;;;;;;5039752;28;20433;-74
2023/09/13 09:04:20;;;;;;;11.30;3.10;;;16.50;99.90;;;;;;5033732;28;21031;-75
2023/09/13 09:06:46;;;;;;;10.02;3.13;;;16.70;99.90;;;;;;5024416;28;20429;-74
2023/09/13 09:09:16;;;;;;;8.90;2.90;;;16.90;99.90;;;;;;5063021;28;20425;-74
2023/09/13 09:11:43;;;;;;;14.98;3.00;;;17.00;99.90;;;;;;5026733;28;20476;-74
2023/09/13 09:14:10;;;;;;;11.25;2.70;;;16.80;99.90;;;;;;5030162;28;20428;-74
2023/09/13 09:16:38;;;;;;;10.30;2.80;;;16.70;99.90;;;;;;5011379;28;20457;-74
2023/09/13 09:19:05;;;;;;;12.10;2.47;;;16.40;99.90;;;;;;5031661;28;20438;-73
2023/09/13 09:21:33;;;;;;;8.23;2.53;;;16.10;99.90;;;;;;5029722;28;20440;-73
2023/09/13 09:23:58;;;;;;;12.02;3.30;;;15.70;99.90;;;;;;5030558;28;20425;-73
2023/09/13 09:26:24;;;;;;;14.27;3.92;;;15.50;99.90;;;;;;5024754;28;20417;-73
2023/09/13 09:28:53;;;;;;;11.95;3.70;;;15.50;99.90;;;;;;5030866;28;20422;-72
2023/09/13 09:31:24;;;;;;;13.57;3.60;;;15.40;99.90;;;;;;5014406;28;20422;-73
2023/09/13 09:34:03;;;;;;;12.98;3.70;;;15.20;99.90;;;;;;5064566;28;20547;-73
2023/09/13 09:36:34;;;;;;;12.82;4.10;;;15.30;99.90;;;;;;5047392;28;20947;-74
2023/09/13 09:39:01;;;;;;;14.45;3.92;;;15.50;99.90;;;;;;5031717;28;20440;-73
2023/09/13 09:41:34;;;;;;;12.52;3.78;;;15.50;99.90;;;;;;5017457;28;20423;-73
2023/09/13 09:44:00;;;;;;;15.48;4.10;;;15.40;99.90;;;;;;5038037;28;20412;-73
2023/09/13 09:46:26;;;;;;;13.60;3.45;;;15.60;99.90;;;;;;5066929;28;20487;-74
2023/09/13 09:48:52;;;;;;;11.50;3.60;;;15.60;99.90;;;;;;5063110;28;20425;-73
2023/09/13 09:51:19;;;;;;;12.25;3.28;;;15.40;99.90;;;;;;5033705;28;20495;-73
2023/09/13 09:53:45;;;;;;;17.08;4.30;;;15.60;99.90;;;;;;5033477;28;20505;-73
2023/09/13 09:56:12;;;;;;;8.77;2.92;;;15.40;99.90;;;;;;5047062;28;20422;-73
2023/09/13 09:58:37;;;;;;;9.52;3.38;;;15.60;99.90;;;;;;5034975;28;21120;-73
2023/09/13 10:01:03;;;;;;;10.83;3.03;;;16.10;99.90;;;;;;5032859;28;20475;-74
2023/09/13 10:03:33;;;;;;;10.13;3.30;;;17.10;99.90;;;;;;5049258;28;20483;-74
2023/09/13 10:06:03;;;;;;;11.98;3.08;;;16.20;99.90;;;;;;5069821;28;20504;-73
2023/09/13 10:08:42;;;;;;;8.80;3.33;;;16.50;99.90;;;;;;5033728;28;20453;-73
2023/09/13 10:11:10;;;;;;;9.57;3.28;;;16.30;99.90;;;;;;5032045;28;20502;-73
2023/09/13 10:13:36;;;;;;;8.27;3.10;;;16.20;99.90;;;;;;5053113;28;20931;-73
2023/09/13 10:16:04;;;;;;;11.07;3.08;;;16.50;99.90;;;;;;5046326;28;20429;-73
2023/09/13 10:18:57;;;;;;;9.35;3.17;;;16.50;99.90;;;;;;5032119;28;20509;-73
2023/09/13 10:21:28;;;;;;;7.38;2.78;;;16.70;99.90;;;;;;5029544;28;20516;-73
2023/09/13 10:24:06;;;;;;;8.02;2.55;;;16.80;99.90;;;;;;5032267;28;20444;-74
2023/09/13 10:26:34;;;;;;;7.80;2.65;;;16.70;99.90;;;;;;5034013;28;20561;-75
2023/09/13 10:29:11;;;;;;;8.88;2.78;;;16.90;99.90;;;;;;5052888;28;20409;-73
2023/09/13 10:31:43;;;;;;;6.32;2.50;;;17.10;99.90;;;;;;5049522;28;20428;-73
2023/09/13 10:34:16;;;;;;;7.07;2.80;;;16.70;99.90;;;;;;5044617;28;20434;-74
2023/09/13 10:36:47;;;;;;;6.95;2.70;;;17.10;99.90;;;;;;5047017;28;20483;-73
2023/09/13 10:39:24;;;;;;;6.25;3.00;;;17.20;99.90;;;;;;5049617;28;20442;-74
2023/09/13 10:42:08;;;;;;;6.15;2.65;;;17.00;99.90;;;;;;5028900;28;20448;-74
2023/09/13 10:44:35;;;;;;;6.68;2.60;;;17.40;99.90;;;;;;5026918;28;20915;-74
2023/09/13 10:47:03;;;;;;;6.40;2.83;;;17.40;99.90;;;;;;5032233;28;20417;-74
2023/09/13 10:49:29;;;;;;;7.82;2.92;;;17.20;99.90;;;;;;5065363;28;20436;-74
2023/09/13 10:51:58;;;;;;;6.53;2.90;;;17.60;99.90;;;;;;5036622;28;20942;-74
2023/09/13 10:54:25;;;;;;;7.35;2.75;;;17.70;99.90;;;;;;5027147;28;20425;-74
2023/09/13 10:56:51;;;;;;;6.70;2.65;;;17.60;99.90;;;;;;5032094;28;20429;-74
2023/09/13 10:59:18;;;;;;;5.45;2.78;;;17.70;99.90;;;;;;5032141;28;20765;-74
2023/09/13 11:01:46;;;;;;;6.32;2.85;;;18.00;99.90;;;;;;5060535;28;20531;-74
2023/09/13 11:04:25;;;;;;;7.10;2.80;;;17.90;99.90;;;;;;5032553;28;22475;-74
2023/09/13 11:06:57;;;;;;;7.18;2.88;;;18.00;99.90;;;;;;5030563;28;20429;-73
2023/09/13 11:09:30;;;;;;;6.80;2.78;;;18.50;99.90;;;;;;5014294;28;20427;-74
2023/09/13 11:11:57;;;;;;;5.82;2.50;;;18.70;99.90;;;;;;5031278;28;20484;-74
2023/09/13 11:14:24;;;;;;;7.70;2.90;;;18.60;99.90;;;;;;5027466;28;20515;-74
2023/09/13 11:16:50;;;;;;;7.55;3.25;;;18.70;99.90;;;;;;5038815;28;20429;-74
2023/09/13 11:19:16;;;;;;;7.40;2.80;;;18.70;99.90;;;;;;5052047;28;20778;-74
2023/09/13 11:21:54;;;;;;;8.43;2.88;;;18.70;99.90;;;;;;5034124;28;20432;-74
2023/09/13 11:24:46;;;;;;;6.53;2.72;;;18.80;99.90;;;;;;5028026;28;20421;-74
2023/09/13 11:27:16;;;;;;;6.13;2.88;;;18.80;99.90;;;;;;5082544;28;20765;-74
2023/09/13 11:29:50;;;;;;;6.43;2.50;;;18.50;99.90;;;;;;5033206;28;20425;-74
2023/09/13 11:32:20;;;;;;;5.05;2.30;;;18.50;99.90;;;;;;5043061;28;20421;-74
2023/09/13 11:34:56;;;;;;;7.28;2.50;;;18.60;99.90;;;;;;5031348;28;20429;-74
2023/09/13 11:37:24;;;;;;;5.55;2.60;;;18.60;99.90;;;;;;5039219;28;20505;-74
2023/09/13 11:39:54;;;;;;;5.70;2.37;;;18.50;99.90;;;;;;5037099;28;21337;-74
2023/09/13 11:42:27;;;;;;;6.50;2.13;;;18.60;99.90;;;;;;5023368;28;20489;-73
2023/09/13 11:44:57;;;;;;;6.20;1.98;;;20.20;99.90;;;;;;5077515;28;20426;-74
2023/09/13 11:47:23;;;;;;;6.55;2.05;;;18.40;99.90;;;;;;5038116;28;20417;-74
2023/09/13 11:49:54;;;;;;;6.20;2.00;;;18.40;99.90;;;;;;5018848;28;20934;-75
2023/09/13 11:52:19;;;;;;;7.47;2.35;;;18.20;99.90;;;;;;5036046;28;20411;-74
2023/09/13 11:54:54;;;;;;;6.93;2.10;;;18.10;99.90;;;;;;5028839;28;20448;-75
2023/09/13 11:57:23;;;;;;;8.00;2.33;;;18.50;99.90;;;;;;5035320;28;21149;-75
2023/09/13 11:59:55;;;;;;;6.35;2.00;;;18.80;99.90;;;;;;5034659;28;20425;-75
2023/09/13 12:02:21;;;;;;;7.72;2.30;;;18.90;99.90;;;;;;5028300;28;20419;-75
2023/09/13 12:04:50;;;;;;;6.03;1.98;;;19.10;99.90;;;;;;5023812;28;20957;-75
2023/09/13 12:07:16;;;;;;;5.47;2.17;;;19.20;99.90;;;;;;5026612;28;20418;-75
2023/09/13 12:09:53;;;;;;;5.45;1.80;;;19.10;99.90;;;;;;5033929;28;20436;-74
2023/09/13 12:12:20;;;;;;;8.07;1.95;;;18.60;99.90;;;;;;5031254;28;20417;-76
2023/09/13 12:14:46;;;;;;;6.15;1.67;;;18.40;99.90;;;;;;5033738;28;20479;-74
2023/09/13 12:17:12;;;;;;;5.93;2.00;;;18.50;99.90;;;;;;5049565;28;20757;-75
2023/09/13 12:19:38;;;;;;;7.00;1.90;;;18.30;99.90;;;;;;5017980;28;20435;-75
2023/09/13 12:22:04;;;;;;;8.75;2.30;;;18.20;99.90;;;;;;5027505;28;20471;-75
2023/09/13 12:24:30;;;;;;;7.18;1.98;;;18.20;99.90;;;;;;5032665;28;20508;-75
2023/09/13 12:26:56;;;;;;;5.65;1.75;;;18.40;99.90;;;;;;5027443;28;20427;-74
2023/09/13 12:29:21;;;;;;;6.63;2.28;;;18.20;99.90;;;;;;5022574;28;20563;-74
2023/09/13 12:31:49;;;;;;;7.47;1.77;;;18.60;99.90;;;;;;5057329;28;20434;-75
2023/09/13 12:34:15;;;;;;;7.97;2.23;;;18.40;99.90;;;;;;5025199;28;21498;-75
2023/09/13 12:36:41;;;;;;;6.88;2.10;;;18.30;99.90;;;;;;5032912;28;20425;-75
2023/09/13 12:39:14;;;;;;;5.35;2.03;;;18.60;99.90;;;;;;5058369;28;20430;-74
2023/09/13 12:41:41;;;;;;;6.32;2.00;;;18.80;99.90;;;;;;5032536;28;20908;-74
2023/09/13 12:44:09;;;;;;;7.65;1.90;;;18.90;99.90;;;;;;5064330;28;20492;-74
2023/09/13 12:46:37;;;;;;;9.05;2.50;;;18.80;99.90;;;;;;5023587;28;20423;-74
2023/09/13 12:49:03;;;;;;;10.63;2.40;;;18.40;99.90;;;;;;5056107;28;20446;-73